Список аэропортов
Фактическая погода:

15 августа, 23:30
Температура: +17°C (+16.3*)
Ветер: западный 5 м/с
Давление: *758 мм
Без существ. явл.
Время (МСК)Темп. СВетерВлажностьДавлениеОблачностьОсадки
21:00+20ЮЗ, 4 м/с94%1010 гПаоблачно
22:00+20ЮЗ, 3 м/с95%1010 гПаоблачно
23:00+19ЮЗ, 3 м/с96%1011 гПаоблачно
16 августа
00:00+19ЮЗ, 3 м/с95%1011 гПаоблачно
01:00+19ЮЗ, 3 м/с96%1011 гПаоблачно
02:00+18ЮЗ, 3 м/с96%1012 гПаоблачно
03:00+18ЮЗ, 3 м/с96%1012 гПаоблачно
04:00+17ЮЗ, 3 м/с95%1012 гПаоблачно
05:00+17ЮЗ, 3 м/с94%1013 гПаоблачно
06:00+16ЮЗ, 3 м/с95%1013 гПаоблачно
07:00+16ЮЗ, 3 м/с95%1013 гПаоблачно
08:00+17З, 3 м/с94%1014 гПаоблачно
09:00+17З, 4 м/с90%1014 гПаоблачно
10:00+17З, 4 м/с86%1015 гПаоблачно
11:00+18З, 4 м/с76%1015 гПаоблачно
12:00+18З, 4 м/с74%1016 гПаоблачно
13:00+18З, 4 м/с73%1016 гПаоблачно
14:00+18СЗ, 4 м/с76%1017 гПаоблачно
15:00+18СЗ, 4 м/с78%1017 гПаоблачно
16:00+18СЗ, 4 м/с76%1017 гПаоблачно
17:00+19СЗ, 4 м/с71%1018 гПаоблачно
18:00+19С, 4 м/с67%1018 гПаясно
19:00+19С, 3 м/с66%1019 гПамалооблачно
20:00+17С, 1 м/с78%1019 гПас прояснениями
21:00+16СЗ, 1 м/с86%1020 гПас прояснениями
22:00+14СЗ, 1 м/с95%1021 гПаясно
23:00+14СЗ, 1 м/с96%1021 гПаясно
17 августа
00:00+13СЗ, 2 м/с96%1021 гПамалооблачно
01:00+13СЗ, 2 м/с94%1022 гПамалооблачно
02:00+12С, 2 м/с93%1022 гПамалооблачно
03:00+11СЗ, 2 м/с95%1023 гПаясно
04:00+11СЗ, 2 м/с94%1023 гПаясно
05:00+10СЗ, 2 м/с95%1024 гПаясно
06:00+11СЗ, 2 м/с94%1024 гПаясно
07:00+12С, 2 м/с90%1024 гПаясно
08:00+14С, 2 м/с80%1024 гПаясно
09:00+17С, 2 м/с67%1024 гПаясно
10:00+20С, 2 м/с58%1024 гПаясно
11:00+21СВ, 3 м/с49%1024 гПамалооблачно
12:00+21СВ, 3 м/с47%1024 гПаясно
13:00+22СВ, 3 м/с46%1024 гПамалооблачно
14:00+22С, 3 м/с45%1024 гПаоблачно
15:00+22С, 3 м/с44%1024 гПаоблачно
16:00+22С, 3 м/с44%1023 гПаоблачно
17:00+21С, 3 м/с45%1023 гПаоблачно
18:00+21С, 3 м/с46%1023 гПаясно
19:00+20С, 3 м/с50%1023 гПаясно
20:00+17С, 2 м/с62%1023 гПаясно
21:00+16С, 2 м/с74%1024 гПаясно